createdAt,value
2018-12-04T00:01:18.363Z,67.01
2018-12-04T00:03:50.945Z,66.75
2018-12-04T00:06:23.646Z,66.57
2018-12-04T00:08:56.224Z,66.40
2018-12-04T00:11:28.898Z,66.57
2018-12-04T00:14:01.442Z,66.48
2018-12-04T00:16:34.038Z,66.15
2018-12-04T00:19:06.589Z,66.28
2018-12-04T00:21:39.162Z,66.11
2018-12-04T00:24:11.733Z,66.46
2018-12-04T00:26:44.386Z,66.26
2018-12-04T00:29:16.938Z,66.40
2018-12-04T00:31:49.540Z,66.67
2018-12-04T00:34:22.118Z,66.89
2018-12-04T00:36:54.710Z,66.45
2018-12-04T00:39:27.277Z,66.54
2018-12-04T00:41:59.960Z,66.42
2018-12-04T00:44:32.511Z,66.87
2018-12-04T00:47:05.100Z,66.78
2018-12-04T00:49:37.645Z,66.71
2018-12-04T00:52:10.222Z,66.85
2018-12-04T00:54:42.772Z,66.64
2018-12-04T00:57:15.421Z,66.53
2018-12-04T00:59:47.970Z,66.88
2018-12-04T01:02:20.548Z,66.74
2018-12-04T01:04:53.118Z,66.72
2018-12-04T01:07:25.710Z,66.42
2018-12-04T01:09:58.254Z,66.40
2018-12-04T01:12:30.941Z,66.58
2018-12-04T01:15:03.506Z,66.49
2018-12-04T01:17:36.107Z,66.52
2018-12-04T01:20:08.808Z,66.46
2018-12-04T01:22:41.481Z,66.50
2018-12-04T01:25:14.044Z,66.58
2018-12-04T01:27:46.733Z,66.71
2018-12-04T01:30:19.314Z,66.60
2018-12-04T01:32:51.885Z,66.64
2018-12-04T01:35:24.474Z,66.72
2018-12-04T01:37:57.158Z,66.53
2018-12-04T01:40:29.709Z,66.42
2018-12-04T01:43:02.316Z,66.36
2018-12-04T01:45:34.862Z,66.22
2018-12-04T01:48:07.446Z,66.57
2018-12-04T01:50:39.992Z,66.17
2018-12-04T01:53:12.562Z,66.32
2018-12-04T01:55:45.111Z,66.44
2018-12-04T01:58:17.707Z,66.36
2018-12-04T02:00:50.321Z,66.71
2018-12-04T02:03:22.979Z,66.58
2018-12-04T02:05:55.576Z,66.16
2018-12-04T02:08:28.372Z,66.59
2018-12-04T02:11:00.955Z,66.41
2018-12-04T02:13:33.608Z,66.58
2018-12-04T02:16:06.222Z,66.41
2018-12-04T02:18:38.890Z,66.69
2018-12-04T02:21:11.440Z,66.75
2018-12-04T02:23:44.039Z,66.28
2018-12-04T02:26:16.591Z,66.65
2018-12-04T02:28:49.208Z,66.57
2018-12-04T02:31:21.775Z,66.50
2018-12-04T02:33:54.351Z,66.61
2018-12-04T02:36:26.916Z,66.58
2018-12-04T02:38:59.502Z,66.76
2018-12-04T02:41:32.063Z,67.14
2018-12-04T02:44:04.748Z,67.12
2018-12-04T02:46:37.305Z,66.89
2018-12-04T02:49:09.886Z,67.20
2018-12-04T02:51:42.423Z,67.12
2018-12-04T02:54:15.008Z,67.14
2018-12-04T02:56:47.569Z,67.00
2018-12-04T02:59:20.159Z,67.05
2018-12-04T03:01:52.709Z,66.92
2018-12-04T03:04:25.304Z,66.88
2018-12-04T03:06:57.853Z,66.69
2018-12-04T03:09:30.507Z,66.74
2018-12-04T03:12:03.175Z,66.53
2018-12-04T03:14:35.856Z,66.70
2018-12-04T03:17:08.399Z,66.92
2018-12-04T03:19:40.991Z,66.83
2018-12-04T03:22:13.536Z,66.83
2018-12-04T03:24:46.125Z,66.77
2018-12-04T03:27:18.679Z,67.04
2018-12-04T03:29:51.352Z,66.77
2018-12-04T03:32:23.909Z,66.84
2018-12-04T03:34:56.499Z,66.72
2018-12-04T03:37:29.042Z,66.93
2018-12-04T03:40:01.636Z,66.86
2018-12-04T03:42:34.263Z,66.81
2018-12-04T03:45:06.997Z,66.75
2018-12-04T03:47:39.551Z,66.73
2018-12-04T03:50:12.198Z,66.56
2018-12-04T03:52:44.744Z,67.00
2018-12-04T03:55:17.415Z,66.98
2018-12-04T03:57:49.978Z,66.84
2018-12-04T04:00:22.556Z,67.06
2018-12-04T04:02:55.109Z,66.71
2018-12-04T04:05:27.826Z,66.44
2018-12-04T04:08:00.369Z,66.55
2018-12-04T04:10:33.047Z,66.39
2018-12-04T04:13:05.586Z,66.51
2018-12-04T04:15:38.530Z,66.36
2018-12-04T04:18:11.070Z,66.87
2018-12-04T04:20:43.674Z,66.64
2018-12-04T04:23:16.236Z,66.73
2018-12-04T04:25:48.823Z,66.73
2018-12-04T04:28:21.412Z,66.27
2018-12-04T04:30:54.064Z,66.64
2018-12-04T04:33:26.683Z,66.42
2018-12-04T04:35:59.287Z,66.48
2018-12-04T04:38:31.836Z,66.54
2018-12-04T04:41:04.404Z,66.66
2018-12-04T04:43:36.947Z,66.75
2018-12-04T04:46:09.540Z,66.56
2018-12-04T04:48:42.098Z,66.57
2018-12-04T04:51:14.685Z,66.76
2018-12-04T04:53:47.257Z,66.23
2018-12-04T04:56:19.931Z,66.59
2018-12-04T04:58:52.644Z,66.34
2018-12-04T05:01:25.241Z,66.45
2018-12-04T05:03:57.806Z,66.61
2018-12-04T05:06:30.487Z,66.57
2018-12-04T05:09:03.913Z,66.29
2018-12-04T05:11:36.522Z,66.32
2018-12-04T05:14:09.089Z,66.33
2018-12-04T05:16:41.675Z,66.15
2018-12-04T05:19:14.269Z,66.72
2018-12-04T05:21:46.943Z,66.69
2018-12-04T05:24:19.489Z,66.48
2018-12-04T05:26:52.097Z,66.60
2018-12-04T05:29:24.668Z,66.54
2018-12-04T05:31:57.263Z,66.46
2018-12-04T05:34:29.827Z,66.52
2018-12-04T05:37:02.450Z,66.39
2018-12-04T05:39:35.027Z,66.40
2018-12-04T05:42:07.707Z,66.47
2018-12-04T05:44:40.251Z,66.30
2018-12-04T05:47:12.837Z,66.43
2018-12-04T05:49:45.393Z,66.29
2018-12-04T05:52:18.090Z,66.23
2018-12-04T05:54:50.670Z,66.12
2018-12-04T05:57:23.295Z,66.19
2018-12-04T05:59:55.850Z,66.02
2018-12-04T06:02:28.423Z,66.06
2018-12-04T06:05:00.975Z,66.10
2018-12-04T06:07:33.554Z,65.88
2018-12-04T06:10:06.331Z,65.88
2018-12-04T06:12:39.004Z,65.90
2018-12-04T06:15:12.185Z,65.93
2018-12-04T06:17:44.806Z,65.84
2018-12-04T06:20:17.376Z,65.79
2018-12-04T06:22:49.952Z,65.67
2018-12-04T06:25:22.499Z,65.67
2018-12-04T06:27:55.419Z,65.68
2018-12-04T06:30:27.970Z,65.62
2018-12-04T06:33:00.639Z,65.74
2018-12-04T06:35:33.179Z,65.66
2018-12-04T06:38:05.856Z,65.98
2018-12-04T06:40:38.414Z,65.97
2018-12-04T06:43:11.010Z,65.86
2018-12-04T06:45:43.556Z,65.87
2018-12-04T06:48:16.135Z,65.86
2018-12-04T06:50:48.671Z,65.87
2018-12-04T06:53:21.234Z,65.89
2018-12-04T06:55:53.825Z,65.66
2018-12-04T06:58:26.456Z,65.68
2018-12-04T07:00:58.976Z,65.94
2018-12-04T07:03:31.627Z,65.82
2018-12-04T07:06:04.170Z,65.92
2018-12-04T07:08:36.949Z,65.94
2018-12-04T07:11:09.497Z,66.03
2018-12-04T07:13:42.163Z,66.14
2018-12-04T07:16:14.725Z,65.95
2018-12-04T07:18:47.282Z,66.02
2018-12-04T07:21:19.823Z,65.94
2018-12-04T07:23:52.645Z,65.89
2018-12-04T07:26:25.183Z,66.02
2018-12-04T07:28:57.755Z,66.01
2018-12-04T07:31:30.296Z,65.77
2018-12-04T07:34:02.874Z,65.81
2018-12-04T07:36:35.412Z,65.71
2018-12-04T07:39:08.521Z,65.83
2018-12-04T07:41:41.081Z,65.88
2018-12-04T07:44:13.641Z,65.84
2018-12-04T07:46:46.160Z,65.82
2018-12-04T07:49:18.719Z,65.89
2018-12-04T07:51:51.255Z,65.68
2018-12-04T07:54:23.912Z,65.83
2018-12-04T07:56:56.438Z,65.80
2018-12-04T07:59:29.003Z,65.70
2018-12-04T08:02:01.549Z,65.91
2018-12-04T08:04:34.130Z,65.81
2018-12-04T08:07:06.675Z,65.90
2018-12-04T08:09:39.319Z,65.83
2018-12-04T08:12:11.858Z,65.71
2018-12-04T08:14:44.479Z,65.62
2018-12-04T08:17:17.018Z,65.93
2018-12-04T08:19:49.582Z,65.84
2018-12-04T08:22:22.111Z,65.67
2018-12-04T08:24:54.682Z,65.62
2018-12-04T08:27:27.229Z,65.81
2018-12-04T08:29:59.999Z,65.56
2018-12-04T08:32:32.548Z,65.56
2018-12-04T08:35:06.489Z,65.41
2018-12-04T08:37:39.021Z,65.57
2018-12-04T08:40:11.591Z,65.33
2018-12-04T08:42:44.155Z,65.39
2018-12-04T08:45:16.707Z,65.22
2018-12-04T08:47:49.248Z,65.51
2018-12-04T08:50:21.827Z,64.75
2018-12-04T08:52:54.417Z,64.29
2018-12-04T08:55:27.095Z,63.63
2018-12-04T08:57:59.664Z,64.15
2018-12-04T09:00:32.237Z,64.08
2018-12-04T09:03:04.759Z,64.04
2018-12-04T09:05:37.341Z,63.79
2018-12-04T09:08:09.871Z,63.74
2018-12-04T09:10:42.531Z,63.51
2018-12-04T09:13:15.058Z,63.82
2018-12-04T09:15:47.717Z,63.63
2018-12-04T09:18:20.289Z,63.90
2018-12-04T09:20:52.995Z,63.76
2018-12-04T09:23:25.582Z,63.90
2018-12-04T09:25:58.363Z,63.83
2018-12-04T09:28:30.938Z,63.66
2018-12-04T09:31:03.613Z,63.88
2018-12-04T09:33:36.225Z,63.72
2018-12-04T09:36:08.836Z,63.68
2018-12-04T09:38:41.389Z,63.39
2018-12-04T09:41:14.048Z,63.44
2018-12-04T09:43:46.748Z,63.63
2018-12-04T09:46:19.415Z,63.73
2018-12-04T09:48:51.955Z,63.62
2018-12-04T09:51:24.656Z,63.27
2018-12-04T09:53:57.203Z,63.02
2018-12-04T09:56:29.857Z,63.19
2018-12-04T09:59:02.476Z,63.04
2018-12-04T10:01:35.229Z,62.78
2018-12-04T10:04:07.756Z,62.95
2018-12-04T10:06:40.503Z,62.94
2018-12-04T10:09:13.054Z,62.55
2018-12-04T10:11:45.720Z,62.50
2018-12-04T10:14:19.220Z,62.97
2018-12-04T10:16:51.985Z,62.88
2018-12-04T10:19:24.530Z,62.97
2018-12-04T10:21:57.110Z,62.33
2018-12-04T10:24:29.661Z,62.35
2018-12-04T10:27:02.249Z,62.23
2018-12-04T10:29:34.816Z,62.11
2018-12-04T10:32:07.392Z,62.55
2018-12-04T10:34:39.929Z,61.97
2018-12-04T10:37:12.732Z,61.74
2018-12-04T10:39:45.280Z,61.36
2018-12-04T10:42:17.850Z,61.31
2018-12-04T10:44:50.406Z,60.94
2018-12-04T10:47:23.072Z,60.77
2018-12-04T10:49:55.677Z,60.13
2018-12-04T10:52:28.247Z,59.79
2018-12-04T10:55:00.804Z,60.00
2018-12-04T10:57:33.525Z,60.14
2018-12-04T11:00:10.694Z,60.47
2018-12-04T11:02:44.594Z,59.63
2018-12-04T11:05:17.149Z,59.55
2018-12-04T11:07:49.723Z,59.00
2018-12-04T11:10:22.275Z,57.96
2018-12-04T11:12:54.935Z,57.49
2018-12-04T11:15:27.486Z,57.14
2018-12-04T11:18:00.064Z,56.22
2018-12-04T11:20:32.645Z,57.02
2018-12-04T11:23:05.294Z,56.61
2018-12-04T11:25:37.844Z,56.63
2018-12-04T11:28:10.417Z,56.04
2018-12-04T11:30:42.971Z,56.41
2018-12-04T11:33:15.552Z,55.44
2018-12-04T11:35:48.101Z,56.17
2018-12-04T11:38:20.682Z,55.10
2018-12-04T11:40:53.229Z,55.07
2018-12-04T11:43:25.881Z,55.80
2018-12-04T11:45:58.432Z,54.46
2018-12-04T11:48:31.082Z,55.29
2018-12-04T11:51:03.631Z,55.73
2018-12-04T11:53:36.307Z,55.14
2018-12-04T11:56:08.880Z,55.31
2018-12-04T11:58:41.506Z,55.49
2018-12-04T12:01:16.123Z,56.05
2018-12-04T12:03:48.780Z,54.86
2018-12-04T12:06:21.370Z,54.87
2018-12-04T12:08:53.943Z,54.30
2018-12-04T12:11:26.504Z,54.83
2018-12-04T12:13:59.156Z,54.25
2018-12-04T12:16:31.696Z,54.29
2018-12-04T12:19:04.282Z,53.96
2018-12-04T12:21:36.834Z,55.27
2018-12-04T12:24:09.429Z,55.20
2018-12-04T12:26:42.012Z,53.64
2018-12-04T12:29:14.582Z,54.31
2018-12-04T12:31:47.124Z,54.09
2018-12-04T12:34:23.498Z,53.03
2018-12-04T12:36:54.286Z,53.89
2018-12-04T12:39:26.917Z,54.04
2018-12-04T12:41:59.457Z,53.81
2018-12-04T12:44:32.031Z,53.82
2018-12-04T12:47:04.591Z,53.99
2018-12-04T12:49:37.187Z,54.28
2018-12-04T12:52:09.742Z,54.31
2018-12-04T12:54:42.423Z,54.72
2018-12-04T12:57:14.985Z,54.39
2018-12-04T12:59:47.638Z,54.15
2018-12-04T13:02:20.182Z,54.45
2018-12-04T13:04:52.847Z,54.85
2018-12-04T13:07:25.394Z,54.85
2018-12-04T13:09:57.985Z,54.70
2018-12-04T13:12:30.536Z,55.64
2018-12-04T13:15:03.122Z,55.05
2018-12-04T13:17:35.687Z,55.41
2018-12-04T13:20:08.580Z,56.20
2018-12-04T13:22:41.160Z,56.30
2018-12-04T13:25:13.830Z,56.19
2018-12-04T13:27:46.369Z,56.02
2018-12-04T13:30:19.471Z,55.87
2018-12-04T13:32:52.050Z,56.20
2018-12-04T13:35:24.690Z,57.70
2018-12-04T13:37:57.259Z,58.58
2018-12-04T13:40:29.949Z,58.92
2018-12-04T13:43:02.504Z,59.46
2018-12-04T13:45:35.059Z,60.61
2018-12-04T13:48:07.642Z,60.89
2018-12-04T13:50:40.217Z,61.18
2018-12-04T13:53:12.787Z,61.41
2018-12-04T13:55:45.388Z,61.13
2018-12-04T13:58:17.926Z,61.25
2018-12-04T14:00:50.497Z,61.35
2018-12-04T14:03:23.102Z,61.28
2018-12-04T14:05:55.697Z,61.62
2018-12-04T14:08:28.279Z,61.73
2018-12-04T14:11:00.876Z,61.69
2018-12-04T14:13:33.422Z,61.91
2018-12-04T14:16:06.025Z,62.01
2018-12-04T14:18:38.587Z,62.02
2018-12-04T14:21:11.145Z,61.99
2018-12-04T14:23:43.713Z,62.04
2018-12-04T14:26:16.276Z,62.09
2018-12-04T14:28:48.836Z,61.97
2018-12-04T14:31:21.512Z,62.24
2018-12-04T14:33:54.205Z,62.23
2018-12-04T14:36:26.815Z,62.36
2018-12-04T14:38:59.458Z,62.41
2018-12-04T14:41:32.035Z,62.62
2018-12-04T14:44:04.644Z,62.66
2018-12-04T14:46:37.290Z,62.71
2018-12-04T14:49:09.862Z,62.84
2018-12-04T14:51:42.639Z,62.92
2018-12-04T14:54:15.169Z,63.01
2018-12-04T14:56:47.859Z,63.12
2018-12-04T14:59:20.405Z,63.22
2018-12-04T15:01:53.095Z,63.17
2018-12-04T15:04:25.685Z,63.18
2018-12-04T15:06:58.250Z,63.10
2018-12-04T15:09:30.801Z,63.17
2018-12-04T15:12:03.544Z,63.12
2018-12-04T15:14:36.187Z,63.08
2018-12-04T15:17:08.995Z,62.96
2018-12-04T15:19:41.569Z,63.03
2018-12-04T15:22:14.174Z,63.32
2018-12-04T15:24:46.846Z,63.38
2018-12-04T15:27:19.554Z,63.21
2018-12-04T15:29:52.200Z,63.41
2018-12-04T15:32:24.873Z,63.41
2018-12-04T15:34:57.423Z,63.68
2018-12-04T15:37:30.142Z,63.29
2018-12-04T15:40:03.280Z,63.50
2018-12-04T15:42:36.050Z,63.52
2018-12-04T15:45:08.641Z,63.42
2018-12-04T15:47:41.438Z,63.89
2018-12-04T15:50:14.095Z,63.95
2018-12-04T15:52:46.760Z,63.67
2018-12-04T15:55:19.309Z,63.55
2018-12-04T15:57:51.876Z,63.84
2018-12-04T16:00:24.403Z,63.82
2018-12-04T16:02:57.011Z,63.82
2018-12-04T16:05:29.650Z,63.98
2018-12-04T16:08:02.229Z,63.87
2018-12-04T16:10:34.762Z,63.98
2018-12-04T16:13:07.567Z,63.92
2018-12-04T16:15:40.286Z,64.14
2018-12-04T16:18:12.834Z,64.07
2018-12-04T16:20:45.372Z,64.32
2018-12-04T16:23:18.048Z,64.28
2018-12-04T16:25:50.599Z,64.29
2018-12-04T16:28:23.162Z,64.47
2018-12-04T16:30:55.695Z,64.31
2018-12-04T16:33:28.253Z,64.30
2018-12-04T16:36:00.783Z,64.58
2018-12-04T16:38:33.450Z,64.69
2018-12-04T16:41:06.320Z,64.47
2018-12-04T16:43:39.078Z,64.56
2018-12-04T16:46:11.622Z,64.64
2018-12-04T16:48:44.210Z,64.41
2018-12-04T16:51:16.742Z,64.33
2018-12-04T16:53:49.308Z,64.23
2018-12-04T16:56:21.837Z,63.97
2018-12-04T16:58:54.526Z,64.03
2018-12-04T17:01:27.073Z,63.97
2018-12-04T17:03:59.748Z,64.03
2018-12-04T17:06:32.275Z,63.75
2018-12-04T17:09:06.403Z,64.01
2018-12-04T17:11:38.937Z,64.25
2018-12-04T17:14:11.586Z,64.38
2018-12-04T17:16:44.140Z,63.95
2018-12-04T17:19:17.709Z,64.08
2018-12-04T17:21:50.246Z,64.01
2018-12-04T17:24:22.829Z,64.22
2018-12-04T17:26:55.405Z,64.51
2018-12-04T17:29:28.086Z,64.21
2018-12-04T17:32:00.643Z,64.24
2018-12-04T17:34:33.230Z,64.18
2018-12-04T17:37:05.780Z,64.16
2018-12-04T17:39:38.444Z,64.29
2018-12-04T17:42:11.036Z,64.20
2018-12-04T17:44:43.611Z,64.26
2018-12-04T17:47:16.144Z,64.18
2018-12-04T17:49:48.688Z,63.99
2018-12-04T17:52:21.234Z,64.06
2018-12-04T17:54:53.812Z,64.06
2018-12-04T17:57:26.360Z,63.99
2018-12-04T17:59:58.923Z,64.25
2018-12-04T18:02:31.455Z,64.12
2018-12-04T18:05:04.277Z,64.12
2018-12-04T18:07:36.811Z,64.11
2018-12-04T18:10:09.653Z,64.26
2018-12-04T18:12:42.201Z,64.15
2018-12-04T18:15:14.834Z,63.97
2018-12-04T18:17:47.363Z,64.06
2018-12-04T18:20:19.943Z,63.93
2018-12-04T18:22:52.532Z,63.99
2018-12-04T18:25:25.103Z,63.76
2018-12-04T18:27:57.669Z,63.99
2018-12-04T18:30:30.245Z,63.98
2018-12-04T18:33:02.788Z,63.87
2018-12-04T18:35:35.493Z,64.00
2018-12-04T18:38:08.156Z,64.06
2018-12-04T18:40:40.735Z,64.21
2018-12-04T18:43:13.281Z,64.11
2018-12-04T18:45:46.046Z,64.32
2018-12-04T18:48:18.611Z,64.36
2018-12-04T18:50:51.233Z,64.31
2018-12-04T18:53:23.887Z,64.25
2018-12-04T18:55:56.477Z,64.40
2018-12-04T18:58:29.023Z,64.46
2018-12-04T19:01:01.929Z,64.33
2018-12-04T19:03:34.481Z,64.29
2018-12-04T19:06:07.141Z,64.29
2018-12-04T19:08:45.394Z,64.41
2018-12-04T19:11:18.070Z,64.20
2018-12-04T19:13:50.613Z,64.45
2018-12-04T19:16:23.221Z,64.29
2018-12-04T19:18:55.758Z,64.16
2018-12-04T19:21:28.332Z,64.45
2018-12-04T19:24:00.886Z,64.46
2018-12-04T19:26:33.463Z,64.40
2018-12-04T19:29:06.124Z,64.25
2018-12-04T19:31:39.311Z,64.53
2018-12-04T19:34:11.954Z,64.69
2018-12-04T19:36:44.519Z,64.53
2018-12-04T19:39:17.054Z,64.45
2018-12-04T19:41:49.631Z,64.65
2018-12-04T19:44:22.186Z,64.47
2018-12-04T19:46:54.894Z,64.46
2018-12-04T19:49:27.509Z,64.31
2018-12-04T19:52:00.325Z,64.35
2018-12-04T19:54:32.875Z,64.41
2018-12-04T19:57:05.453Z,64.33
2018-12-04T19:59:38.002Z,64.43
2018-12-04T20:02:10.586Z,64.35
2018-12-04T20:04:43.134Z,64.21
2018-12-04T20:07:15.723Z,64.45
2018-12-04T20:09:48.308Z,64.26
2018-12-04T20:12:21.033Z,64.21
2018-12-04T20:14:53.570Z,64.46
2018-12-04T20:17:26.148Z,64.43
2018-12-04T20:19:58.699Z,63.91
2018-12-04T20:22:31.363Z,64.30
2018-12-04T20:25:04.479Z,64.34
2018-12-04T20:27:37.065Z,64.21
2018-12-04T20:30:09.630Z,64.24
2018-12-04T20:32:42.316Z,64.31
2018-12-04T20:35:14.861Z,64.27
2018-12-04T20:37:47.427Z,64.25
2018-12-04T20:40:19.968Z,64.39
2018-12-04T20:42:52.525Z,64.31
2018-12-04T20:45:25.067Z,64.18
2018-12-04T20:47:58.066Z,64.26
2018-12-04T20:50:30.862Z,64.12
2018-12-04T20:53:03.554Z,63.98
2018-12-04T20:55:36.101Z,64.00
2018-12-04T20:58:08.893Z,64.11
2018-12-04T21:00:41.431Z,64.20
2018-12-04T21:03:14.071Z,64.02
2018-12-04T21:05:46.756Z,64.01
2018-12-04T21:08:19.546Z,63.89
2018-12-04T21:10:52.094Z,63.87
2018-12-04T21:13:24.666Z,63.90
2018-12-04T21:15:57.239Z,63.62
2018-12-04T21:18:29.884Z,63.94
2018-12-04T21:21:02.445Z,63.97
2018-12-04T21:23:35.011Z,64.00
2018-12-04T21:26:07.563Z,63.96
2018-12-04T21:28:42.174Z,63.98
2018-12-04T21:31:20.351Z,64.10
2018-12-04T21:37:03.939Z,64.01
2018-12-04T21:39:36.522Z,63.87
2018-12-04T21:42:14.720Z,63.97
2018-12-04T21:44:52.881Z,64.03
2018-12-04T21:47:31.002Z,64.06
2018-12-04T21:50:04.160Z,63.77
2018-12-04T21:52:36.723Z,63.83
2018-12-04T21:55:09.311Z,63.97
2018-12-04T21:57:41.924Z,63.70
2018-12-04T22:00:14.845Z,64.01
2018-12-04T22:02:47.374Z,63.98
2018-12-04T22:05:20.274Z,63.87
2018-12-04T22:07:53.207Z,63.95
2018-12-04T22:10:26.660Z,63.95
2018-12-04T22:12:59.228Z,64.03
2018-12-04T22:15:31.836Z,63.47
2018-12-04T22:18:04.495Z,63.79
2018-12-04T22:20:37.290Z,63.94
2018-12-04T22:23:09.825Z,63.79
2018-12-04T22:25:42.396Z,64.01
2018-12-04T22:28:14.955Z,63.86
2018-12-04T22:30:47.549Z,63.77
2018-12-04T22:33:20.390Z,63.97
2018-12-04T22:35:53.040Z,63.72
2018-12-04T22:38:25.572Z,63.54
2018-12-04T22:40:58.468Z,63.91
2018-12-04T22:43:31.000Z,63.61
2018-12-04T22:46:05.208Z,63.79
2018-12-04T22:48:38.240Z,63.88
2018-12-04T22:51:10.892Z,63.85
2018-12-04T22:53:43.394Z,63.67
2018-12-04T22:56:16.608Z,63.47
2018-12-04T22:58:49.403Z,63.53
2018-12-04T23:01:40.283Z,63.58
2018-12-04T23:04:12.862Z,63.61
2018-12-04T23:06:45.432Z,63.67
2018-12-04T23:09:17.963Z,63.85
2018-12-04T23:11:50.531Z,63.37
2018-12-04T23:14:23.071Z,64.14
2018-12-04T23:16:55.860Z,63.68
2018-12-04T23:19:28.386Z,63.65
2018-12-04T23:22:00.972Z,63.85
2018-12-04T23:24:33.536Z,63.78
2018-12-04T23:27:06.095Z,63.55
2018-12-04T23:29:38.713Z,63.80
2018-12-04T23:32:11.764Z,63.63
2018-12-04T23:34:44.295Z,63.95
2018-12-04T23:37:16.866Z,64.06
2018-12-04T23:39:49.403Z,63.79
2018-12-04T23:42:22.019Z,63.86
2018-12-04T23:44:54.572Z,64.00
2018-12-04T23:47:27.292Z,63.71
2018-12-04T23:49:59.848Z,64.03
2018-12-04T23:52:32.433Z,63.88
2018-12-04T23:55:05.637Z,64.02
2018-12-04T23:57:38.303Z,64.20
